Airfield :
LOGIN :

Register | Disclaimer

   EN    FR    IT 

 










Legend :    VFR   Marginal VFR   IFR   Intensive IFR   Very Intensive IFR
Visi :
Ceiling :
>= 8 km
>= 3000ft
5 to 8 km
1000 to 3000 ft
1500m to 5 km
500 to 1000 ft
800 to 1500m
200 to 500 ft
< 800m
< 200 ft
Symbols :   Thunderstorms  Fog  Heavy snow  Heavy precipitations  Wind > 20 kt
SIGMETs :     Misc.  Thunderstorms  Icing  Turbulence  Mountain Waves  Volcanic Ashes






- Airport Elevation : 412 ft
- IATA code : ADB


LTBJ - Adnan Menderes

CURRENT METAR :
  • 061620Z 22007KT 190V260 CAVOK 31/19 Q0999 NOSIG

EXPIRED METARs :
  • 061550Z 24009KT CAVOK 32/19 Q0999 NOSIG RMK RWY16 20010KT
  • 061520Z 24011KT 9999 FEW035 32/19 Q0999 NOSIG RMK RWY16 21010KT
  • 061450Z 23011KT 9999 FEW035 33/20 Q0999 NOSIG RMK RWY16 21011KT
  • 061420Z 23011KT 9999 FEW035 34/20 Q0999 NOSIG RMK RWY16 21010KT
  • 061350Z 23012KT 200V260 9999 FEW035 34/21 Q0999 NOSIG RMK RWY16 34006KT 280V020

TAF TAF LTBJ
Valid from the 06 at 12:00 until the 07 at 12:00 UTC


061040Z 0612/0712 VRB02KT 9999 FEW030
TEMPO 0613/0616 22013KT
BECMG 0615/0618 CAVOK
BECMG 0706/0709 SCT030



MET'MAP, your aeronautical weather chart ! - Copyright ORBIFLY December 2007 - Disclaimer

ORBIFLY MET'MAP TEAM :

Programming & Development : Alexandra Zaïnal
Concept & original design : Baudouin d'Aumeries
Assistance for programming : Marc-Olivier Méhu
Technical & hardware support : Manuel Goepfert

Contact : metmap@orbifly.com




SOURCES & CREDITS :

   NOAA